KHYR/HYR METAR and TAF weather

Enter ICAO airport designator
Station Type Date Time Source
KHYR METAR 2021/10/24 20:53 UTC NOAA

KHYR 242053Z AUTO 03014G20KT 10SM FEW038 09/00 A3000 RMK AO2 SLP174 T00890000 58012


Station Type Date Time Source
KHYR Decoded METAR 2021/10/24 20:53 UTC NOAA

HAYWARD MUNICIPAL AIRPORT, WI, United States (KHYR) 46-01N 91-27W 370M
Oct 24, 2021 - 04:53 PM EDT / 2021.10.24 2053 UTC
Wind: from the NNE (030 degrees) at 16 MPH (14 KT) gusting to 23 MPH (20 KT):0
Visibility: 10 mile(s):0
Sky conditions: mostly clear
Temperature: 48.0 F (8.9 C)
Dew Point: 32.0 F (0.0 C)
Relative Humidity: 53%
Pressure (altimeter): 30 in. Hg (1015 hPa)
Pressure tendency: 0.04 inches (1.2 hPa) lower than three hours ago
ob: KHYR 242053Z AUTO 03014G20KT 10SM FEW038 09/00 A3000 RMK AO2 SLP174 T00890000 58012
cycle: 21

Station Type Date Time Source
KHYR TAF 2021/10/24 18:39 UTC NOAA

TAF KHYR 241735Z 2418/2518 08008G16KT P6SM FEW028 BKN035
FM250000 05009G17KT P6SM BKN250
FM250700 05007KT P6SM BKN250
FM251700 05008G16KT P6SM SCT080

Example: see airport list